Time;durP1;ratioP1;P1;durP2;ratioP2;P2;SDS_P1;SDS_P2;PMS_P1;PMS_P2;Temp;Humidity;BMP_temperature;BMP_pressure;BME280_temperature;BME280_humidity;BME280_pressure;Samples;Min_cycle;Max_cycle;Signal;HPM_P1;HPM_P2
2022/05/29 00:02:33;;;;;;;11.13;2.85;;;;;;;11.69;67.75;101719.47;5032886;28;20448;-47
2022/05/29 00:05:20;;;;;;;8.68;2.90;;;;;;;11.66;68.41;101714.50;5036358;28;20061;-48
2022/05/29 00:08:13;;;;;;;9.63;2.83;;;;;;;11.64;68.85;101715.84;5034164;28;20511;-46
2022/05/29 00:11:02;;;;;;;7.93;2.90;;;;;;;11.63;68.56;101716.94;5021421;28;20085;-50
2022/05/29 00:13:49;;;;;;;8.15;2.80;;;;;;;11.60;68.98;101715.53;5026381;28;20492;-49
2022/05/29 00:16:37;;;;;;;8.93;2.60;;;;;;;11.59;69.19;101711.13;5022597;28;20115;-49
2022/05/29 00:19:25;;;;;;;7.40;2.85;;;;;;;11.57;69.04;101704.28;5021139;28;20049;-50
2022/05/29 00:22:16;;;;;;;9.05;2.70;;;;;;;11.56;69.80;101702.63;5028431;28;20045;-49
2022/05/29 00:25:07;;;;;;;7.15;2.75;;;;;;;11.57;69.78;101709.75;5021657;28;20080;-49
2022/05/29 00:27:55;;;;;;;9.35;2.67;;;;;;;11.57;69.60;101698.81;5027016;28;20050;-48
2022/05/29 00:30:42;;;;;;;8.60;2.92;;;;;;;11.57;69.72;101698.81;5025967;28;20053;-52
2022/05/29 00:33:30;;;;;;;8.90;2.70;;;;;;;11.55;70.42;101693.63;5035544;28;20041;-48
2022/05/29 00:36:17;;;;;;;9.63;3.30;;;;;;;11.51;70.50;101695.22;5035550;28;20103;-47
2022/05/29 00:39:06;;;;;;;8.80;2.72;;;;;;;11.48;70.41;101693.81;5023118;28;20042;-47
2022/05/29 00:41:54;;;;;;;11.18;3.17;;;;;;;11.47;70.60;101686.72;5015288;28;20050;-49
2022/05/29 00:44:42;;;;;;;12.68;3.08;;;;;;;11.46;71.13;101687.78;5019671;28;20041;-50
2022/05/29 00:47:30;;;;;;;13.45;3.05;;;;;;;11.47;71.20;101685.88;5035180;28;20083;-47
2022/05/29 00:50:22;;;;;;;9.40;2.90;;;;;;;11.47;71.18;101680.41;5025972;28;20041;-47
2022/05/29 00:53:10;;;;;;;11.18;2.90;;;;;;;11.46;70.99;101681.50;5028227;28;20049;-48
2022/05/29 00:56:05;;;;;;;10.40;3.35;;;;;;;11.44;71.48;101679.00;5020792;28;20060;-47
2022/05/29 00:58:43;;;;;;;;;;;;;;;11.42;71.23;101678.44;5018294;28;20053;-47
2022/05/29 01:01:31;;;;;;;10.98;2.85;;;;;;;11.42;71.27;101675.72;5022622;28;20432;-48
2022/05/29 01:04:21;;;;;;;8.18;2.85;;;;;;;11.40;72.27;101677.88;5024830;28;20038;-47
2022/05/29 01:07:10;;;;;;;16.75;3.17;;;;;;;11.36;72.37;101671.28;5034954;28;20041;-48
2022/05/29 01:10:00;;;;;;;10.90;3.35;;;;;;;11.39;71.93;101668.03;5023984;28;20052;-50
2022/05/29 01:13:00;;;;;;;12.75;3.33;;;;;;;11.40;72.39;101663.41;5021111;28;20050;-50
2022/05/29 01:15:59;;;;;;;9.60;2.83;;;;;;;11.39;72.43;101665.31;5004160;28;20492;-48
2022/05/29 01:19:04;;;;;;;9.63;2.55;;;;;;;11.39;72.63;101670.75;5024869;28;20050;-49
2022/05/29 01:21:55;;;;;;;10.13;2.85;;;;;;;11.37;72.56;101661.19;5023154;28;20037;-48
2022/05/29 01:25:13;;;;;;;10.43;2.83;;;;;;;11.36;72.70;101654.09;5034583;28;20484;-49
2022/05/29 01:28:11;;;;;;;9.38;3.00;;;;;;;11.35;72.50;101650.50;5026213;28;20081;-53
2022/05/29 01:31:22;;;;;;;12.35;3.28;;;;;;;11.34;72.64;101645.31;5028306;28;20045;-50
2022/05/29 01:34:28;;;;;;;8.85;2.67;;;;;;;11.33;73.32;101649.13;5008138;28;20425;-50
2022/05/29 01:37:36;;;;;;;12.27;3.28;;;;;;;11.34;73.49;101645.31;5025203;28;20049;-49
2022/05/29 01:40:55;;;;;;;12.15;3.15;;;;;;;11.33;73.32;101646.38;5029388;28;20049;-49
2022/05/29 01:44:02;;;;;;;7.28;2.58;;;;;;;11.32;73.36;101645.56;5017036;28;20049;-47
2022/05/29 01:46:54;;;;;;;10.52;2.92;;;;;;;11.31;73.46;101641.19;5017944;28;20058;-49
2022/05/29 01:49:51;;;;;;;7.47;2.95;;;;;;;11.31;74.05;101635.75;5027331;28;20122;-51
2022/05/29 01:52:52;;;;;;;8.52;2.83;;;;;;;11.32;74.13;101631.94;5014729;28;20045;-53
2022/05/29 01:55:44;;;;;;;14.05;3.50;;;;;;;11.34;73.82;101634.41;5033117;28;20411;-52
2022/05/29 01:58:37;;;;;;;8.27;2.60;;;;;;;11.31;74.18;101630.28;5032685;28;20050;-48
2022/05/29 02:01:29;;;;;;;9.90;2.95;;;;;;;11.30;73.80;101634.06;5001296;28;20539;-52
2022/05/29 02:04:20;;;;;;;11.80;3.10;;;;;;;11.29;74.38;101630.53;5018692;28;20045;-51
2022/05/29 02:10:41;;;;;;;10.10;3.40;;;;;;;11.29;74.34;101626.97;5020668;28;20048;-52
2022/05/29 02:13:49;;;;;;;9.93;2.80;;;;;;;11.26;74.09;101622.03;5024089;28;20049;-50
2022/05/29 02:16:52;;;;;;;8.45;2.92;;;;;;;11.24;74.36;101624.19;5015347;28;20050;-50
2022/05/29 02:19:47;;;;;;;9.82;3.20;;;;;;;11.21;75.02;101622.78;5020273;28;20053;-52
2022/05/29 02:22:36;;;;;;;11.00;2.90;;;;;;;11.18;75.22;101625.19;5024406;28;20053;-51
2022/05/29 02:25:26;;;;;;;11.38;3.15;;;;;;;11.17;75.04;101612.66;5023957;28;20037;-50
2022/05/29 02:28:33;;;;;;;10.18;3.00;;;;;;;11.17;75.30;101612.66;5019214;28;20052;-49
2022/05/29 02:31:22;;;;;;;10.85;2.90;;;;;;;11.16;75.47;101600.06;5014812;28;20054;-50
2022/05/29 02:34:12;;;;;;;15.32;3.47;;;;;;;11.16;75.49;101609.09;5018923;28;20125;-48
2022/05/29 02:37:11;;;;;;;9.30;2.90;;;;;;;11.16;75.66;101605.53;5027002;28;20048;-47
2022/05/29 02:40:36;;;;;;;10.82;3.72;;;;;;;11.14;75.56;101596.78;5024495;28;20359;-47
2022/05/29 02:43:51;;;;;;;12.85;3.17;;;;;;;11.13;75.76;101597.84;5015344;28;20053;-50
2022/05/29 02:46:55;;;;;;;13.00;3.40;;;;;;;11.14;75.66;101592.16;5025170;28;20408;-50
2022/05/29 02:50:10;;;;;;;10.25;3.05;;;;;;;11.16;75.97;101594.59;5033306;28;20042;-50
2022/05/29 02:53:01;;;;;;;10.68;3.35;;;;;;;11.14;76.25;101583.16;5033461;28;20044;-49
2022/05/29 02:55:48;;;;;;;9.95;3.30;;;;;;;11.12;76.20;101586.13;5026580;28;20045;-47
2022/05/29 02:58:38;;;;;;;11.82;3.08;;;;;;;11.11;75.87;101597.28;5026024;28;20041;-48
2022/05/29 03:01:28;;;;;;;12.25;3.40;;;;;;;11.11;76.19;101589.91;5012619;28;20516;-47
2022/05/29 03:04:18;;;;;;;8.93;3.28;;;;;;;11.10;76.70;101591.00;5032568;28;20124;-47
2022/05/29 03:07:12;;;;;;;13.48;3.50;;;;;;;11.08;76.48;101584.97;5016301;28;20064;-47
2022/05/29 03:10:08;;;;;;;11.82;3.08;;;;;;;11.07;76.81;101584.16;5023257;28;20049;-47
2022/05/29 03:12:44;;;;;;;11.63;3.65;;;;;;;11.05;76.62;101586.31;5031615;28;20046;-49
2022/05/29 03:15:48;;;;;;;12.77;3.47;;;;;;;11.05;76.79;101589.03;5031001;28;20053;-48
2022/05/29 03:19:02;;;;;;;11.80;3.92;;;;;;;11.02;77.48;101584.09;5014528;28;20053;-49
2022/05/29 03:21:56;;;;;;;11.57;3.35;;;;;;;11.02;77.21;101584.09;5002219;28;20054;-50
2022/05/29 03:25:07;;;;;;;12.20;3.80;;;;;;;11.03;77.68;101579.44;5026222;28;20049;-47
2022/05/29 03:27:44;;;;;;;10.20;3.20;;;;;;;11.02;77.75;101584.09;5022644;28;20500;-47
2022/05/29 03:30:45;;;;;;;13.00;3.70;;;;;;;11.01;77.54;101585.16;5026083;28;20049;-51
2022/05/29 03:33:33;;;;;;;11.48;3.42;;;;;;;11.01;77.83;101576.16;5027539;28;20100;-54
2022/05/29 03:36:22;;;;;;;11.40;3.40;;;;;;;11.01;77.73;101582.41;5022778;28;20088;-54
2022/05/29 03:39:09;;;;;;;12.05;3.60;;;;;;;11.02;78.27;101592.25;5024052;28;20046;-50
2022/05/29 03:41:57;;;;;;;12.27;3.45;;;;;;;11.00;78.58;101586.22;5026069;28;20053;-53
2022/05/29 03:44:45;;;;;;;10.07;3.22;;;;;;;10.98;79.23;101582.13;5025284;28;20385;-52
2022/05/29 03:47:32;;;;;;;12.93;3.40;;;;;;;10.95;79.29;101588.91;5033410;28;20049;-51
2022/05/29 03:50:22;;;;;;;10.65;3.28;;;;;;;10.89;80.34;101578.97;5023733;28;20049;-46
2022/05/29 03:53:09;;;;;;;10.57;3.20;;;;;;;10.84;80.96;101581.63;5029736;28;20121;-48
2022/05/29 03:55:57;;;;;;;10.02;3.15;;;;;;;10.82;82.08;101573.72;5034686;28;20045;-49
2022/05/29 03:58:46;;;;;;;9.13;2.92;;;;;;;10.84;81.95;101584.38;5030637;28;20061;-48
2022/05/29 04:01:34;;;;;;;10.77;3.08;;;;;;;10.81;82.50;101573.97;5015510;28;20422;-48
2022/05/29 04:04:22;;;;;;;7.65;2.70;;;;;;;10.80;82.72;101569.56;5017578;28;20050;-48
2022/05/29 04:07:09;;;;;;;8.90;3.15;;;;;;;10.80;83.34;101564.97;5031006;28;20508;-48
2022/05/29 04:13:04;;;;;;;7.25;3.13;;;;;;;10.87;83.91;101567.50;5025650;28;20081;-48
2022/05/29 04:15:52;;;;;;;8.85;3.47;;;;;;;10.88;83.97;101571.88;5013769;28;20447;-48
2022/05/29 04:18:40;;;;;;;10.27;3.20;;;;;;;10.85;84.88;101583.31;5033231;28;20045;-47
2022/05/29 04:21:28;;;;;;;10.20;3.13;;;;;;;10.84;84.97;101568.00;5029137;28;20365;-50
2022/05/29 04:24:19;;;;;;;9.32;3.20;;;;;;;10.83;84.93;101569.09;5030022;28;20488;-50
2022/05/29 04:27:14;;;;;;;11.07;3.45;;;;;;;10.84;85.49;101568.00;5029554;28;20514;-50
2022/05/29 04:30:02;;;;;;;9.98;3.30;;;;;;;10.88;85.94;101561.00;5027322;28;20050;-49
2022/05/29 04:32:59;;;;;;;10.93;3.60;;;;;;;10.86;85.45;101563.13;5033863;28;20488;-46
2022/05/29 04:35:52;;;;;;;9.75;3.08;;;;;;;10.85;86.41;101569.69;5022483;28;20053;-47
2022/05/29 04:38:39;;;;;;;10.27;3.20;;;;;;;10.85;86.64;101572.41;5034531;28;20492;-49
2022/05/29 04:41:27;;;;;;;11.90;3.83;;;;;;;10.85;87.40;101567.78;5019275;28;20091;-53
2022/05/29 04:44:15;;;;;;;9.77;3.13;;;;;;;10.75;87.48;101562.19;5017352;28;20496;-48
2022/05/29 04:47:03;;;;;;;8.25;2.95;;;;;;;10.71;87.40;101566.47;5020258;28;20476;-51
2022/05/29 04:49:51;;;;;;;8.32;2.70;;;;;;;10.73;87.43;101561.59;5033012;28;20079;-50
2022/05/29 04:52:38;;;;;;;8.40;2.78;;;;;;;10.75;88.03;101555.88;5035204;28;20046;-52
2022/05/29 04:55:26;;;;;;;10.38;2.92;;;;;;;10.71;87.21;101554.75;5021748;28;20041;-52
2022/05/29 04:58:13;;;;;;;9.20;3.13;;;;;;;10.70;87.65;101553.09;5025799;28;20053;-49
2022/05/29 05:00:41;;;;;;;11.07;3.08;;;;;;;10.71;88.10;101546.56;5014049;28;20378;-50
2022/05/29 05:03:30;;;;;;;9.93;3.17;;;;;;;10.73;88.23;101541.72;5030133;28;20073;-50
2022/05/29 05:06:17;;;;;;;6.30;2.70;;;;;;;10.71;88.16;101538.41;5031268;28;20393;-50
2022/05/29 05:09:05;;;;;;;7.05;2.55;;;;;;;10.73;88.71;101530.81;5025986;28;20038;-47
2022/05/29 05:11:54;;;;;;;7.03;2.63;;;;;;;10.74;88.33;101527.00;5035013;28;20060;-47
2022/05/29 05:14:41;;;;;;;6.22;2.30;;;;;;;10.69;87.28;101529.66;5012283;28;20069;-48
2022/05/29 05:17:29;;;;;;;8.60;2.78;;;;;;;10.65;87.77;101534.75;5018691;28;20054;-51
2022/05/29 05:20:17;;;;;;;6.53;2.40;;;;;;;10.65;87.58;101527.44;5028523;28;20068;-49
2022/05/29 05:23:05;;;;;;;7.80;2.65;;;;;;;10.64;86.78;101519.50;5009939;28;20485;-53
2022/05/29 05:25:52;;;;;;;6.60;2.13;;;;;;;10.66;86.77;101531.78;5030565;28;20037;-52
2022/05/29 05:28:40;;;;;;;6.50;2.17;;;;;;;10.68;85.88;101523.38;5028935;28;20050;-52
2022/05/29 05:31:28;;;;;;;9.40;2.47;;;;;;;10.69;85.90;101518.75;5023546;28;20042;-50
2022/05/29 05:33:57;;;;;;;4.82;2.45;;;;;;;10.72;86.26;101519.06;5034738;28;20394;-46
2022/05/29 05:36:44;;;;;;;6.13;2.40;;;;;;;10.75;86.51;101529.47;5033278;28;20046;-49
2022/05/29 05:39:32;;;;;;;5.78;2.20;;;;;;;10.79;86.91;101522.41;5032080;28;20381;-50
2022/05/29 05:42:19;;;;;;;8.20;2.45;;;;;;;10.79;86.41;101527.06;5025678;28;20042;-54
2022/05/29 05:45:10;;;;;;;14.02;2.65;;;;;;;10.77;87.00;101535.47;5032523;28;20042;-48
2022/05/29 05:47:58;;;;;;;6.95;2.78;;;;;;;10.75;87.60;101534.94;5031153;28;20046;-51
2022/05/29 05:50:45;;;;;;;6.60;2.20;;;;;;;10.76;88.77;101542.00;5021473;28;20164;-50
2022/05/29 05:53:34;;;;;;;7.60;2.67;;;;;;;10.77;88.75;101543.66;5028542;28;20046;-50
2022/05/29 05:56:21;;;;;;;8.75;3.00;;;;;;;10.76;89.42;101549.38;5025332;28;20041;-50
2022/05/29 05:59:09;;;;;;;9.30;2.75;;;;;;;10.77;89.50;101546.38;5004839;28;20462;-49
2022/05/29 06:01:58;;;;;;;7.55;2.42;;;;;;;10.75;90.34;101542.25;5026537;28;20477;-49
2022/05/29 06:04:46;;;;;;;10.15;3.20;;;;;;;10.73;90.36;101542.53;5032147;28;20115;-50
2022/05/29 06:07:34;;;;;;;7.65;2.60;;;;;;;10.74;90.69;101543.34;5030560;28;20048;-50
2022/05/29 06:10:21;;;;;;;8.32;2.60;;;;;;;10.74;91.56;101540.63;5020674;28;20048;-49
2022/05/29 06:13:09;;;;;;;8.63;2.67;;;;;;;10.75;91.19;101543.09;5032122;28;20045;-49
2022/05/29 06:16:03;;;;;;;6.97;2.58;;;;;;;10.77;91.24;101537.38;5019088;28;20050;-49
2022/05/29 06:18:52;;;;;;;7.63;2.72;;;;;;;10.81;91.83;101546.72;5025662;28;20124;-49
2022/05/29 06:21:39;;;;;;;10.15;3.10;;;;;;;10.85;92.12;101528.78;5031984;28;20562;-50
2022/05/29 06:24:27;;;;;;;7.47;2.70;;;;;;;10.90;92.31;101528.84;5031652;28;20048;-49
2022/05/29 06:27:15;;;;;;;9.30;3.33;;;;;;;10.96;91.84;101532.47;5016763;28;20124;-50
2022/05/29 06:30:03;;;;;;;8.50;3.15;;;;;;;10.98;91.57;101533.03;5027780;28;20515;-51
2022/05/29 06:32:50;;;;;;;8.02;3.00;;;;;;;10.97;91.41;101532.22;5014348;28;20558;-55
2022/05/29 06:35:38;;;;;;;8.05;3.00;;;;;;;10.96;91.67;101536.00;5017152;28;20048;-49
2022/05/29 06:38:26;;;;;;;11.63;3.95;;;;;;;10.96;91.54;101541.44;5017277;28;20457;-48
2022/05/29 06:41:15;;;;;;;9.05;3.10;;;;;;;10.96;91.20;101541.44;5015685;28;20045;-47
2022/05/29 06:44:03;;;;;;;8.88;3.28;;;;;;;10.97;91.37;101532.22;5028016;28;20505;-48
2022/05/29 06:46:51;;;;;;;9.07;3.08;;;;;;;11.01;91.33;101533.34;5029891;28;20412;-47
2022/05/29 06:49:38;;;;;;;7.78;3.25;;;;;;;11.03;92.15;101539.38;5027812;28;20289;-50
2022/05/29 06:52:31;;;;;;;10.75;3.33;;;;;;;11.05;91.76;101539.94;5018143;28;20058;-48
2022/05/29 06:55:21;;;;;;;12.60;3.67;;;;;;;11.07;91.86;101545.16;5012762;28;20038;-48
2022/05/29 06:58:09;;;;;;;8.35;2.97;;;;;;;11.10;92.53;101541.91;5015797;28;20497;-49
2022/05/29 07:07:28;;;;;;;7.88;2.70;;;;;;;11.14;92.68;101544.97;5027834;28;20049;-48
2022/05/29 07:10:16;;;;;;;7.78;3.25;;;;;;;11.15;93.12;101538.41;5012010;28;20136;-54
2022/05/29 07:13:05;;;;;;;8.95;3.30;;;;;;;11.17;93.43;101530.81;5015482;28;20081;-49
2022/05/29 07:15:52;;;;;;;18.23;4.00;;;;;;;11.18;92.75;101529.72;5014215;28;20072;-53
2022/05/29 07:18:40;;;;;;;10.43;3.40;;;;;;;11.18;93.36;101537.91;5016151;28;20050;-55
2022/05/29 07:21:28;;;;;;;10.80;3.33;;;;;;;11.15;92.77;101532.97;5012671;28;20046;-50
2022/05/29 07:24:16;;;;;;;11.02;3.67;;;;;;;11.18;92.71;101535.19;5012314;28;20050;-52
2022/05/29 07:27:08;;;;;;;9.95;3.28;;;;;;;11.20;93.14;101538.47;5012904;28;20161;-51
2022/05/29 07:29:56;;;;;;;9.50;3.42;;;;;;;11.21;92.48;101529.22;5021442;28;20049;-52
2022/05/29 07:32:44;;;;;;;9.23;3.47;;;;;;;11.22;92.31;101525.41;5022500;28;20050;-53
2022/05/29 07:35:31;;;;;;;12.63;3.60;;;;;;;11.29;94.10;101524.13;5013776;28;20451;-49
2022/05/29 07:38:19;;;;;;;12.55;3.40;;;;;;;11.30;92.79;101525.81;5009371;28;20051;-50
2022/05/29 07:44:13;;;;;;;13.45;3.90;;;;;;;11.40;91.87;101525.09;5022950;28;20045;-52
2022/05/29 07:47:01;;;;;;;9.20;3.10;;;;;;;11.45;93.31;101522.41;5032420;28;20503;-54
2022/05/29 07:49:48;;;;;;;11.93;3.53;;;;;;;11.41;91.75;101526.72;5023391;28;20049;-52
2022/05/29 07:52:36;;;;;;;8.88;3.30;;;;;;;11.36;91.17;101523.94;5032040;28;20052;-50
2022/05/29 07:55:25;;;;;;;9.82;3.30;;;;;;;11.37;90.22;101517.38;5019374;28;20046;-51
2022/05/29 07:58:14;;;;;;;9.07;3.20;;;;;;;11.38;89.97;101505.41;5032707;28;20044;-48
2022/05/29 08:01:01;;;;;;;9.60;3.08;;;;;;;11.43;90.74;101519.09;5006192;28;20068;-51
2022/05/29 08:03:49;;;;;;;7.53;2.85;;;;;;;11.47;89.48;101509.34;5018492;28;20041;-47
2022/05/29 08:06:37;;;;;;;12.85;3.85;;;;;;;11.50;90.28;101502.53;5031218;28;20053;-50
2022/05/29 08:09:25;;;;;;;11.50;3.60;;;;;;;11.49;88.94;101509.88;5011494;28;20068;-48
2022/05/29 08:12:12;;;;;;;13.07;3.47;;;;;;;11.50;89.21;101502.53;5016770;28;20045;-47
2022/05/29 08:15:00;;;;;;;12.95;3.30;;;;;;;11.54;89.54;101500.09;5025414;28;20049;-50
2022/05/29 08:17:48;;;;;;;12.13;3.05;;;;;;;11.59;89.08;101505.59;5019083;28;20046;-49
2022/05/29 08:20:36;;;;;;;11.57;3.28;;;;;;;11.65;88.73;101499.13;5021559;28;20097;-51
2022/05/29 08:23:26;;;;;;;9.73;3.10;;;;;;;11.71;88.71;101509.00;5028236;28;20050;-48
2022/05/29 08:32:26;;;;;;;12.80;3.17;;;;;;;11.83;85.99;101509.66;5025157;28;20050;-48
2022/05/29 08:35:14;;;;;;;11.73;3.20;;;;;;;11.83;82.55;101500.66;5035947;28;20045;-50
2022/05/29 08:38:03;;;;;;;10.73;2.97;;;;;;;11.82;82.20;101494.38;5034300;28;20404;-49
2022/05/29 08:41:04;;;;;;;9.40;2.70;;;;;;;11.85;82.91;101491.09;5024345;28;20519;-50
2022/05/29 08:44:01;;;;;;;12.80;3.42;;;;;;;11.85;82.14;101499.31;5015155;28;20056;-49
2022/05/29 08:46:52;;;;;;;8.02;2.53;;;;;;;11.84;81.43;101486.75;5033952;28;20048;-50
2022/05/29 08:49:46;;;;;;;10.40;3.13;;;;;;;11.89;83.21;101494.19;5028492;28;20399;-48
2022/05/29 08:52:43;;;;;;;10.82;2.97;;;;;;;11.92;83.93;101489.00;5017398;28;20046;-51
2022/05/29 08:55:38;;;;;;;12.48;3.55;;;;;;;11.93;84.39;101493.41;5034676;28;20057;-49
2022/05/29 08:58:50;;;;;;;12.25;3.00;;;;;;;11.96;84.75;101488.50;5025660;28;20393;-47
2022/05/29 09:02:10;;;;;;;10.18;3.08;;;;;;;11.97;83.74;101490.97;5034852;28;20416;-48
2022/05/29 09:05:03;;;;;;;11.15;3.08;;;;;;;11.99;82.31;101482.53;5024554;28;20045;-49
2022/05/29 09:07:51;;;;;;;8.55;2.65;;;;;;;11.98;82.41;101476.25;5017031;28;20046;-49
2022/05/29 09:10:42;;;;;;;8.40;3.40;;;;;;;12.00;82.51;101479.53;5016341;28;20053;-49
2022/05/29 09:13:37;;;;;;;11.18;3.22;;;;;;;12.05;81.03;101476.00;5031890;28;20046;-48
2022/05/29 09:16:28;;;;;;;11.05;2.97;;;;;;;12.05;82.00;101465.06;5027396;28;20060;-50
2022/05/29 09:19:34;;;;;;;12.15;3.30;;;;;;;12.06;81.36;101458.53;5029539;28;20049;-49
2022/05/29 09:22:28;;;;;;;10.68;3.40;;;;;;;12.12;81.74;101465.66;5020917;28;20545;-49
2022/05/29 09:25:39;;;;;;;8.18;3.35;;;;;;;12.13;80.38;101457.22;5013859;28;20042;-48
2022/05/29 09:28:35;;;;;;;7.90;2.75;;;;;;;12.17;79.81;101452.06;5025598;28;20056;-47
2022/05/29 09:31:26;;;;;;;9.57;3.00;;;;;;;12.18;80.18;101459.16;5031181;28;20449;-48
2022/05/29 09:34:14;;;;;;;11.30;3.17;;;;;;;12.16;80.11;101455.88;5034266;28;20439;-45
2022/05/29 09:37:11;;;;;;;10.90;2.65;;;;;;;12.10;80.49;101465.13;5034865;28;20064;-50
2022/05/29 09:40:05;;;;;;;8.82;2.53;;;;;;;11.96;81.32;101462.03;5027651;28;20112;-48
2022/05/29 09:42:54;;;;;;;7.60;2.63;;;;;;;11.86;80.74;101454.53;5003865;28;20042;-50
2022/05/29 09:45:42;;;;;;;10.15;2.85;;;;;;;11.94;82.51;101454.06;5023492;28;20045;-52
2022/05/29 09:51:40;;;;;;;8.18;2.35;;;;;;;12.19;79.89;101451.78;5025295;28;20045;-52
2022/05/29 09:54:32;;;;;;;5.15;2.10;;;;;;;12.39;78.51;101454.66;5034755;28;20507;-48
2022/05/29 09:57:24;;;;;;;9.18;2.80;;;;;;;12.53;76.19;101450.38;5027314;28;20408;-49
2022/05/29 10:00:30;;;;;;;6.10;2.33;;;;;;;12.64;74.94;101444.94;5030860;28;20046;-49
2022/05/29 10:03:57;;;;;;;5.70;2.13;;;;;;;12.74;74.53;101429.38;5032645;28;20038;-49
2022/05/29 10:06:52;;;;;;;6.53;2.20;;;;;;;12.86;71.32;101436.53;5019088;28;20057;-49
2022/05/29 10:10:24;;;;;;;6.03;1.77;;;;;;;12.86;71.76;101436.53;5034051;28;20053;-49
2022/05/29 10:13:36;;;;;;;8.10;3.17;;;;;;;12.77;72.19;101434.34;5033222;28;20045;-48
2022/05/29 10:16:32;;;;;;;8.82;2.30;;;;;;;12.73;73.59;101444.16;5031804;28;20052;-50
2022/05/29 10:19:39;;;;;;;4.28;1.92;;;;;;;12.58;72.79;101460.50;5034119;28;20060;-49
2022/05/29 10:22:41;;;;;;;2.92;1.50;;;;;;;12.34;74.34;101485.50;5033808;28;20052;-48
2022/05/29 10:25:52;;;;;;;2.42;0.95;;;;;;;11.98;73.28;101483.59;5013292;28;20050;-47
2022/05/29 10:28:41;;;;;;;1.83;1.10;;;;;;;11.92;75.63;101486.28;5031793;28;20056;-48
2022/05/29 10:31:35;;;;;;;1.73;1.15;;;;;;;11.70;78.95;101490.97;5015017;28;20049;-49
2022/05/29 10:34:25;;;;;;;2.83;1.10;;;;;;;11.57;82.45;101481.31;5030682;28;20505;-49
2022/05/29 10:37:41;;;;;;;2.45;1.00;;;;;;;11.59;84.55;101472.84;5032513;28;20060;-50
2022/05/29 10:40:31;;;;;;;2.35;1.15;;;;;;;11.49;85.94;101468.94;5026447;28;20054;-49
2022/05/29 10:43:41;;;;;;;5.47;1.40;;;;;;;11.36;87.53;101468.56;5016622;28;20065;-48
2022/05/29 10:46:53;;;;;;;3.08;1.50;;;;;;;11.44;87.89;101462.63;5031954;28;20560;-47
2022/05/29 10:49:59;;;;;;;3.05;1.23;;;;;;;11.60;87.21;101463.59;5026242;28;20500;-50
2022/05/29 10:53:35;;;;;;;1.98;1.00;;;;;;;11.80;85.36;101447.38;5027579;28;20182;-47
2022/05/29 10:56:34;;;;;;;5.10;1.42;;;;;;;11.97;83.91;101441.00;5026250;28;20045;-52
2022/05/29 10:59:44;;;;;;;4.47;1.60;;;;;;;12.09;83.41;101444.34;5028571;28;20038;-52
2022/05/29 11:03:19;;;;;;;4.35;1.33;;;;;;;12.06;83.20;101439.41;5021549;28;20507;-50
2022/05/29 11:06:13;;;;;;;4.28;1.13;;;;;;;12.02;83.78;101439.09;5032141;28;20045;-53
2022/05/29 11:09:27;;;;;;;2.85;1.13;;;;;;;12.12;84.54;101439.19;5020143;28;20046;-55
2022/05/29 11:12:23;;;;;;;3.17;1.33;;;;;;;12.36;84.75;101436.03;5032938;28;20045;-50
2022/05/29 11:15:21;;;;;;;;;;;;;;;12.49;85.60;101434.75;5026304;28;20049;-50
2022/05/29 11:18:11;;;;;;;6.43;1.70;;;;;;;12.52;83.57;101431.50;5002113;28;19928;-49
2022/05/29 11:21:33;;;;;;;6.40;1.80;;;;;;;12.43;84.59;101427.63;5019934;28;20045;-52
2022/05/29 11:24:46;;;;;;;4.47;1.77;;;;;;;12.46;85.98;101419.72;5019660;28;20124;-50
2022/05/29 11:27:58;;;;;;;3.38;1.70;;;;;;;12.47;87.03;101431.47;5032808;28;20459;-48
2022/05/29 11:31:10;;;;;;;3.63;1.60;;;;;;;12.40;83.80;101433.63;5031274;28;20060;-51
2022/05/29 11:34:05;;;;;;;1.95;1.10;;;;;;;12.34;80.69;101439.06;5026692;28;20052;-50
2022/05/29 11:37:20;;;;;;;3.00;1.07;;;;;;;12.11;79.44;101442.19;5023217;28;20038;-50
2022/05/29 11:40:15;;;;;;;3.08;1.15;;;;;;;11.93;82.21;101432.50;5027060;28;20307;-53
2022/05/29 11:43:15;;;;;;;1.98;1.08;;;;;;;11.96;83.42;101428.44;5016106;28;20049;-49
2022/05/29 11:52:37;;;;;;;5.78;1.63;;;;;;;12.28;82.21;101423.72;5024352;28;20403;-51
2022/05/29 11:55:33;;;;;;;3.70;1.40;;;;;;;12.33;82.04;101406.53;4314964;28;10000741;-46
2022/05/29 11:58:41;;;;;;;4.43;1.55;;;;;;;12.41;81.60;101400.56;5010111;28;20050;-52
2022/05/29 12:01:37;;;;;;;5.38;1.70;;;;;;;12.57;82.68;101396.78;5032636;28;20064;-50
2022/05/29 12:04:35;;;;;;;5.40;2.10;;;;;;;12.68;80.48;101391.38;5026121;28;20240;-52
2022/05/29 12:07:34;;;;;;;4.38;1.83;;;;;;;12.82;81.12;101391.69;5025775;28;20534;-48
2022/05/29 12:10:23;;;;;;;5.47;1.80;;;;;;;12.92;81.10;101384.34;5032541;28;20049;-48
2022/05/29 12:13:13;;;;;;;3.50;1.67;;;;;;;13.00;81.56;101383.78;5017470;28;20061;-48
2022/05/29 12:16:06;;;;;;;4.25;1.80;;;;;;;12.99;83.03;101395.84;5027065;28;20049;-51
2022/05/29 12:18:55;;;;;;;4.85;1.75;;;;;;;12.85;80.26;101408.38;5006013;28;20586;-47
2022/05/29 12:21:59;;;;;;;6.80;2.05;;;;;;;12.64;77.88;101399.28;5021835;28;20052;-46
2022/05/29 12:24:49;;;;;;;6.25;2.17;;;;;;;12.48;79.42;101406.63;5023968;28;20054;-49
2022/05/29 12:27:37;;;;;;;7.00;2.10;;;;;;;12.41;80.13;101405.19;5028070;28;20507;-49
2022/05/29 12:30:36;;;;;;;6.82;2.20;;;;;;;12.41;80.68;101399.72;5020665;28;20049;-49
2022/05/29 12:33:25;;;;;;;5.47;2.03;;;;;;;12.49;81.08;101391.03;5005941;28;20555;-49
2022/05/29 12:36:33;;;;;;;6.25;1.95;;;;;;;12.58;79.87;101392.16;5026838;28;20069;-49
2022/05/29 12:39:52;;;;;;;8.00;2.50;;;;;;;12.68;80.13;101381.25;5022703;28;20064;-50
2022/05/29 12:43:06;;;;;;;6.72;2.13;;;;;;;12.79;78.51;101382.94;5017102;28;20045;-48
2022/05/29 12:46:05;;;;;;;8.52;2.35;;;;;;;12.79;75.67;101376.63;5024411;28;20045;-49
2022/05/29 12:49:17;;;;;;;10.73;2.53;;;;;;;12.74;76.64;101374.69;5017175;28;20058;-48
2022/05/29 12:52:17;;;;;;;9.93;2.63;;;;;;;12.76;76.10;101378.00;5024445;28;20528;-49
2022/05/29 12:55:35;;;;;;;8.50;2.17;;;;;;;12.77;75.18;101379.66;5027848;28;20042;-50
2022/05/29 12:58:47;;;;;;;8.75;2.40;;;;;;;12.82;80.32;101367.91;5035071;28;20500;-48
2022/05/29 13:01:47;;;;;;;5.75;2.10;;;;;;;12.97;81.14;101372.59;5011193;28;20404;-50
2022/05/29 13:04:53;;;;;;;6.75;2.53;;;;;;;13.09;81.52;101366.88;5025128;28;20125;-48
2022/05/29 13:07:56;;;;;;;8.10;2.72;;;;;;;13.09;79.77;101364.94;5035470;28;20049;-54
2022/05/29 13:10:28;;;;;;;8.95;2.75;;;;;;;13.09;80.76;101364.13;5032633;28;20096;-53
2022/05/29 13:13:35;;;;;;;8.43;2.28;;;;;;;12.95;74.32;101359.16;5020981;28;20057;-54
2022/05/29 13:16:41;;;;;;;9.50;2.40;;;;;;;12.91;74.61;101371.72;5023907;28;20045;-50
2022/05/29 13:19:59;;;;;;;12.00;2.92;;;;;;;12.92;75.24;101372.59;5034889;28;20115;-53
2022/05/29 13:22:54;;;;;;;8.05;2.22;;;;;;;12.93;75.86;101369.56;5022650;28;20038;-51
2022/05/29 13:25:42;;;;;;;7.43;2.60;;;;;;;12.98;73.81;101371.47;5034413;28;20045;-51
2022/05/29 13:28:41;;;;;;;9.50;2.67;;;;;;;13.04;74.55;101372.34;5012047;28;20072;-49
2022/05/29 13:31:32;;;;;;;8.50;2.30;;;;;;;13.04;71.58;101373.16;5021251;28;20043;-50
2022/05/29 13:34:29;;;;;;;9.48;2.35;;;;;;;13.05;72.46;101373.97;5017907;28;20046;-49
2022/05/29 13:37:47;;;;;;;5.50;1.92;;;;;;;13.11;71.12;101364.69;5027733;28;20049;-51
2022/05/29 13:40:42;;;;;;;14.57;2.90;;;;;;;13.13;70.50;101366.06;5023515;28;20484;-53
2022/05/29 13:43:29;;;;;;;12.30;2.80;;;;;;;13.12;70.04;101369.06;5019092;28;20132;-53
2022/05/29 13:46:24;;;;;;;11.45;2.40;;;;;;;13.12;70.29;101367.13;5034186;28;20061;-50
2022/05/29 13:49:22;;;;;;;7.40;1.95;;;;;;;13.14;71.40;101356.75;5033828;28;20057;-50
2022/05/29 13:52:10;;;;;;;7.03;2.17;;;;;;;13.17;70.17;101355.38;5028467;28;20037;-48
2022/05/29 13:55:17;;;;;;;9.80;2.40;;;;;;;13.17;70.69;101366.31;5025030;28;20053;-51
2022/05/29 14:04:56;;;;;;;7.10;2.20;;;;;;;13.04;67.31;101361.38;5034245;28;20068;-48
2022/05/29 14:08:31;;;;;;;5.88;2.05;;;;;;;13.03;68.51;101362.47;5034216;28;20045;-49